ADDS METAR Data INFO
IDs: Format: Raw Decoded Include TAF

Data at: 1735 UTC 15 Dec 2017

KRKS 151654Z AUTO 24009KT 10SM CLR 01/M11 A3020 RMK AO2 SLP249 T00111106
KRKS 151554Z AUTO 21009KT 10SM CLR M01/M11 A3020 RMK AO2 PK WND 25028/1457 SLP258 T10111111
KRKS 151454Z AUTO 24021KT 10SM CLR M03/M12 A3020 RMK AO2 SLP257 T10281117 58003
KRKS 151354Z AUTO 23015KT 10SM CLR M03/M12 A3021 RMK AO2 PK WND 26031/1321 SLP261 T10281122
KRKS 151254Z AUTO 25014KT 10SM CLR M02/M12 A3020 RMK AO2 SLP259 T10221117
KRKS 151154Z AUTO 27008G17KT 10SM CLR M01/M12 A3021 RMK AO2 PK WND 26026/1109 SLP253 T10111117 11011 21039 56008
KRKS 151054Z AUTO 26015G24KT 10SM CLR M02/M12 A3021 RMK AO2 PK WND 25026/1019 SLP251 T10221122
KRKS 150954Z AUTO 24019KT 10SM CLR M02/M13 A3022 RMK AO2 PK WND 25026/0929 SLP251 T10221128
KRKS 150854Z AUTO 24016KT 10SM CLR M02/M13 A3024 RMK AO2 SLP260 T10221128 55010
KRKS 150754Z AUTO 24011KT 10SM CLR M03/M12 A3024 RMK AO2 SLP266 T10331117
KRKS 150654Z AUTO 25010KT 10SM CLR M04/M11 A3026 RMK AO2 SLP278 T10391106 400171083
KRKS 150554Z AUTO 25009KT 10SM CLR M04/M12 A3027 RMK AO2 SLP287 T10391117 11011 21044 56002
KRKS 150454Z AUTO 25012KT 10SM CLR M04/M12 A3027 RMK AO2 SLP293 T10391117
KRKS 150354Z AUTO 24015KT 10SM CLR M03/M12 A3028 RMK AO2 SLP297 T10331117
KRKS 150254Z AUTO 24015KT 10SM CLR M02/M12 A3028 RMK AO2 SLP299 T10221122 56002
KRKS 150154Z AUTO 24014KT 10SM CLR M02/M11 A3028 RMK AO2 SLP296 T10221111
KRKS 150054Z AUTO 25013KT 10SM CLR M02/M10 A3028 RMK AO2 SLP297 T10221100
KRKS 142354Z AUTO 25008KT 10SM CLR M01/M10 A3029 RMK AO2 SLP302 T10111100 10017 21022 53000
KRKS 142254Z AUTO 26010KT 10SM CLR 01/M09 A3028 RMK AO2 SLP286 T00111094
KRKS 142154Z AUTO 26014KT 10SM CLR 02/M08 A3028 RMK AO2 SLP280 T00171083
KRKS 142054Z AUTO 24009KT 10SM FEW027 01/M07 A3029 RMK AO2 SLP284 T00111067 58012
KRKS 141954Z AUTO 25012KT 10SM FEW019 00/M06 A3030 RMK AO2 SLP293 T00001056
KRKS 141935Z AUTO 27010G19KT 10SM FEW017 M01/M06 A3031 RMK AO2 T10061061
KRKS 141925Z AUTO 27011G16KT 10SM BKN016 00/M06 A3031 RMK AO2 T00001056
KRKS 141854Z AUTO 26011KT 10SM OVC013 M01/M05 A3032 RMK AO2 SLP303 T10111050
KRKS 141754Z AUTO 25010KT 10SM OVC013 M02/M06 A3033 RMK AO2 SLP307 I6000 T10221056 11022 21083 50003
KRKS 141654Z AUTO 26007KT 10SM OVC010 M04/M06 A3033 RMK AO2 SLP311 T10441056
KRKS 141554Z AUTO 00000KT 10SM OVC013 M06/M07 A3033 RMK AO2 SLP314 T10561067
KRKS 141530Z AUTO 34004KT 10SM BKN014 BKN020 OVC027 M06/M07 A3033 RMK AO2 T10561072
KRKS 141454Z AUTO 36006KT 10SM OVC024 M07/M08 A3032 RMK AO2 SLP312 I3000 T10721083 53011
KRKS 141354Z AUTO 24005KT 10SM OVC026 M06/M07 A3030 RMK AO2 SLP303 T10611072
KRKS 141311Z AUTO 21006KT 10SM OVC029 M07/M07 A3029 RMK AO2 T10671072
KRKS 141254Z AUTO 26008KT 10SM BKN030 M07/M08 A3029 RMK AO2 SLP300 I1000 T10721083
KRKS 141154Z AUTO 27005KT 10SM CLR M08/M09 A3028 RMK AO2 SLP292 I1000 I6000 T10781094 11033 21083 53012
KRKS 141054Z AUTO 26003KT 10SM CLR M06/M08 A3026 RMK AO2 SLP271 T10611078
KRKS 141008Z AUTO 00000KT 10SM SCT018 M05/M08 A3025 RMK AO2 T10501078
KRKS 140954Z AUTO VRB03KT 10SM BKN018 M05/M07 A3024 RMK AO2 SLP257 T10501072
KRKS 140909Z AUTO 00000KT 10SM BKN018 M05/M07 A3024 RMK AO2 T10501072
KRKS 140854Z AUTO 06006KT 10SM SCT018 M05/M07 A3024 RMK AO2 SLP252 T10501072 51007
KRKS 140754Z AUTO 06012KT 10SM CLR M05/M07 A3024 RMK AO2 SLP252 T10501067
KRKS 140654Z AUTO 05008KT 10SM OVC080 M04/M06 A3022 RMK AO2 SLP247 T10441061 400671044
KRKS 140554Z AUTO 04008KT 10SM FEW010 SCT055 OVC070 M03/M05 A3021 RMK AO2 SNE24 SLP240 P0000 60000 T10331050 10011 21033 52021
KRKS 140547Z AUTO 04009KT 10SM FEW010 BKN050 OVC075 M03/M05 A3021 RMK AO2 SNE24 P0000 T10331050